sensor_id;sensor_type;location;lat;lon;timestamp;P1;durP1;ratioP1;P2;durP2;ratioP2
46729;SDS011;32476;50.002;11.854;2022-09-16T00:00:47;9.50;;;6.57;;
46729;SDS011;32476;50.002;11.854;2022-09-16T00:03:18;10.77;;;7.00;;
46729;SDS011;32476;50.002;11.854;2022-09-16T00:05:46;9.07;;;6.90;;
46729;SDS011;32476;50.002;11.854;2022-09-16T00:08:17;13.20;;;6.37;;
46729;SDS011;32476;50.002;11.854;2022-09-16T00:10:46;9.83;;;7.17;;
46729;SDS011;32476;50.002;11.854;2022-09-16T00:13:13;11.63;;;6.30;;
46729;SDS011;32476;50.002;11.854;2022-09-16T00:15:45;10.67;;;7.57;;
46729;SDS011;32476;50.002;11.854;2022-09-16T00:18:15;10.33;;;6.37;;
46729;SDS011;32476;50.002;11.854;2022-09-16T00:20:43;9.70;;;6.80;;
46729;SDS011;32476;50.002;11.854;2022-09-16T00:23:12;8.50;;;6.80;;
46729;SDS011;32476;50.002;11.854;2022-09-16T00:25:38;9.67;;;7.40;;
46729;SDS011;32476;50.002;11.854;2022-09-16T00:28:05;11.40;;;6.77;;
46729;SDS011;32476;50.002;11.854;2022-09-16T00:30:32;14.37;;;7.27;;
46729;SDS011;32476;50.002;11.854;2022-09-16T00:32:58;11.63;;;7.37;;
46729;SDS011;32476;50.002;11.854;2022-09-16T00:35:25;9.80;;;6.70;;
46729;SDS011;32476;50.002;11.854;2022-09-16T00:37:51;9.60;;;6.30;;
46729;SDS011;32476;50.002;11.854;2022-09-16T00:40:17;10.73;;;7.53;;
46729;SDS011;32476;50.002;11.854;2022-09-16T00:42:45;14.17;;;7.53;;
46729;SDS011;32476;50.002;11.854;2022-09-16T00:45:15;11.07;;;7.47;;
46729;SDS011;32476;50.002;11.854;2022-09-16T00:47:50;14.80;;;7.50;;
46729;SDS011;32476;50.002;11.854;2022-09-16T00:53:12;9.80;;;7.10;;
46729;SDS011;32476;50.002;11.854;2022-09-16T00:55:45;16.03;;;7.87;;
46729;SDS011;32476;50.002;11.854;2022-09-16T00:58:14;13.47;;;8.00;;
46729;SDS011;32476;50.002;11.854;2022-09-16T01:01:06;13.07;;;7.73;;
46729;SDS011;32476;50.002;11.854;2022-09-16T01:03:47;12.93;;;7.30;;
46729;SDS011;32476;50.002;11.854;2022-09-16T01:06:18;13.90;;;7.80;;
46729;SDS011;32476;50.002;11.854;2022-09-16T01:08:48;9.13;;;6.67;;
46729;SDS011;32476;50.002;11.854;2022-09-16T01:11:15;13.00;;;8.27;;
46729;SDS011;32476;50.002;11.854;2022-09-16T01:13:41;13.33;;;7.67;;
46729;SDS011;32476;50.002;11.854;2022-09-16T01:19:09;15.53;;;8.93;;
46729;SDS011;32476;50.002;11.854;2022-09-16T01:24:49;18.60;;;9.47;;
46729;SDS011;32476;50.002;11.854;2022-09-16T01:27:41;12.63;;;9.10;;
46729;SDS011;32476;50.002;11.854;2022-09-16T01:31:07;13.03;;;8.73;;
46729;SDS011;32476;50.002;11.854;2022-09-16T01:36:48;12.43;;;8.33;;
46729;SDS011;32476;50.002;11.854;2022-09-16T01:40:08;13.33;;;9.53;;
46729;SDS011;32476;50.002;11.854;2022-09-16T01:42:46;14.93;;;9.53;;
46729;SDS011;32476;50.002;11.854;2022-09-16T01:45:32;13.00;;;9.20;;
46729;SDS011;32476;50.002;11.854;2022-09-16T01:51:22;13.00;;;8.43;;
46729;SDS011;32476;50.002;11.854;2022-09-16T01:54:18;13.80;;;9.93;;
46729;SDS011;32476;50.002;11.854;2022-09-16T01:57:03;15.23;;;8.83;;
46729;SDS011;32476;50.002;11.854;2022-09-16T02:00:08;13.80;;;9.63;;
46729;SDS011;32476;50.002;11.854;2022-09-16T02:02:48;13.43;;;9.00;;
46729;SDS011;32476;50.002;11.854;2022-09-16T02:05:44;15.60;;;10.23;;
46729;SDS011;32476;50.002;11.854;2022-09-16T02:08:34;17.80;;;10.33;;
46729;SDS011;32476;50.002;11.854;2022-09-16T02:11:13;13.13;;;9.37;;
46729;SDS011;32476;50.002;11.854;2022-09-16T02:13:46;11.97;;;8.97;;
46729;SDS011;32476;50.002;11.854;2022-09-16T02:16:31;16.87;;;10.50;;
46729;SDS011;32476;50.002;11.854;2022-09-16T02:19:20;16.50;;;11.53;;
46729;SDS011;32476;50.002;11.854;2022-09-16T02:21:51;11.70;;;9.20;;
46729;SDS011;32476;50.002;11.854;2022-09-16T02:24:21;16.30;;;9.43;;
46729;SDS011;32476;50.002;11.854;2022-09-16T02:26:57;15.87;;;10.43;;
46729;SDS011;32476;50.002;11.854;2022-09-16T02:29:33;14.53;;;10.27;;
46729;SDS011;32476;50.002;11.854;2022-09-16T02:32:05;15.97;;;9.40;;
46729;SDS011;32476;50.002;11.854;2022-09-16T02:34:36;14.13;;;9.73;;
46729;SDS011;32476;50.002;11.854;2022-09-16T02:37:17;12.97;;;9.40;;
46729;SDS011;32476;50.002;11.854;2022-09-16T02:39:57;13.07;;;8.97;;
46729;SDS011;32476;50.002;11.854;2022-09-16T02:42:29;12.57;;;8.30;;
46729;SDS011;32476;50.002;11.854;2022-09-16T02:44:58;15.80;;;9.23;;
46729;SDS011;32476;50.002;11.854;2022-09-16T02:47:28;16.00;;;9.53;;
46729;SDS011;32476;50.002;11.854;2022-09-16T02:50:33;15.87;;;9.67;;
46729;SDS011;32476;50.002;11.854;2022-09-16T02:53:24;11.10;;;9.07;;
46729;SDS011;32476;50.002;11.854;2022-09-16T02:56:08;15.00;;;10.40;;
46729;SDS011;32476;50.002;11.854;2022-09-16T02:58:46;15.83;;;9.90;;
46729;SDS011;32476;50.002;11.854;2022-09-16T03:01:14;17.00;;;9.50;;
46729;SDS011;32476;50.002;11.854;2022-09-16T03:03:41;12.90;;;9.20;;
46729;SDS011;32476;50.002;11.854;2022-09-16T03:08:35;12.03;;;9.20;;
46729;SDS011;32476;50.002;11.854;2022-09-16T03:11:07;13.20;;;8.73;;
46729;SDS011;32476;50.002;11.854;2022-09-16T03:23:03;13.90;;;9.03;;
46729;SDS011;32476;50.002;11.854;2022-09-16T03:28:44;16.60;;;9.87;;
46729;SDS011;32476;50.002;11.854;2022-09-16T03:31:58;12.43;;;8.50;;
46729;SDS011;32476;50.002;11.854;2022-09-16T03:37:26;14.87;;;9.53;;
46729;SDS011;32476;50.002;11.854;2022-09-16T03:39:58;15.90;;;9.23;;
46729;SDS011;32476;50.002;11.854;2022-09-16T03:42:31;14.23;;;9.00;;
46729;SDS011;32476;50.002;11.854;2022-09-16T03:44:57;15.23;;;9.53;;
46729;SDS011;32476;50.002;11.854;2022-09-16T03:47:23;12.07;;;8.10;;
46729;SDS011;32476;50.002;11.854;2022-09-16T03:49:51;11.20;;;8.53;;
46729;SDS011;32476;50.002;11.854;2022-09-16T03:52:17;13.40;;;8.57;;
46729;SDS011;32476;50.002;11.854;2022-09-16T03:54:44;12.87;;;8.57;;
46729;SDS011;32476;50.002;11.854;2022-09-16T03:57:11;16.07;;;8.60;;
46729;SDS011;32476;50.002;11.854;2022-09-16T03:59:37;12.50;;;8.80;;
46729;SDS011;32476;50.002;11.854;2022-09-16T04:02:03;19.30;;;8.23;;
46729;SDS011;32476;50.002;11.854;2022-09-16T04:04:31;15.57;;;8.80;;
46729;SDS011;32476;50.002;11.854;2022-09-16T04:06:57;12.93;;;7.73;;
46729;SDS011;32476;50.002;11.854;2022-09-16T04:09:22;12.40;;;7.93;;
46729;SDS011;32476;50.002;11.854;2022-09-16T04:11:50;12.70;;;7.33;;
46729;SDS011;32476;50.002;11.854;2022-09-16T04:14:16;11.80;;;7.63;;
46729;SDS011;32476;50.002;11.854;2022-09-16T04:16:42;13.83;;;7.90;;
46729;SDS011;32476;50.002;11.854;2022-09-16T04:19:10;13.93;;;7.57;;
46729;SDS011;32476;50.002;11.854;2022-09-16T04:21:38;16.50;;;7.23;;
46729;SDS011;32476;50.002;11.854;2022-09-16T04:24:04;10.50;;;6.67;;
46729;SDS011;32476;50.002;11.854;2022-09-16T04:26:32;13.80;;;7.37;;
46729;SDS011;32476;50.002;11.854;2022-09-16T04:28:58;14.07;;;7.60;;
46729;SDS011;32476;50.002;11.854;2022-09-16T04:31:24;13.73;;;6.70;;
46729;SDS011;32476;50.002;11.854;2022-09-16T04:33:52;12.77;;;7.33;;
46729;SDS011;32476;50.002;11.854;2022-09-16T04:36:18;14.80;;;7.53;;
46729;SDS011;32476;50.002;11.854;2022-09-16T04:38:45;13.33;;;8.20;;
46729;SDS011;32476;50.002;11.854;2022-09-16T04:41:15;16.07;;;8.53;;
46729;SDS011;32476;50.002;11.854;2022-09-16T04:43:44;16.47;;;8.43;;
46729;SDS011;32476;50.002;11.854;2022-09-16T04:46:11;14.30;;;8.73;;
46729;SDS011;32476;50.002;11.854;2022-09-16T04:48:39;15.87;;;10.23;;
46729;SDS011;32476;50.002;11.854;2022-09-16T04:51:06;16.13;;;10.53;;
46729;SDS011;32476;50.002;11.854;2022-09-16T04:53:35;18.07;;;10.40;;
46729;SDS011;32476;50.002;11.854;2022-09-16T04:56:08;17.23;;;10.07;;
46729;SDS011;32476;50.002;11.854;2022-09-16T04:58:41;16.73;;;10.20;;
46729;SDS011;32476;50.002;11.854;2022-09-16T05:01:20;21.77;;;11.57;;
46729;SDS011;32476;50.002;11.854;2022-09-16T05:03:53;16.30;;;10.80;;
46729;SDS011;32476;50.002;11.854;2022-09-16T05:06:33;18.80;;;12.10;;
46729;SDS011;32476;50.002;11.854;2022-09-16T05:09:03;15.67;;;10.87;;
46729;SDS011;32476;50.002;11.854;2022-09-16T05:11:32;14.67;;;11.23;;
46729;SDS011;32476;50.002;11.854;2022-09-16T05:14:02;17.37;;;11.70;;
46729;SDS011;32476;50.002;11.854;2022-09-16T05:16:35;20.93;;;12.10;;
46729;SDS011;32476;50.002;11.854;2022-09-16T05:19:02;16.63;;;12.50;;
46729;SDS011;32476;50.002;11.854;2022-09-16T05:21:33;20.53;;;11.80;;
46729;SDS011;32476;50.002;11.854;2022-09-16T05:24:03;16.83;;;11.80;;
46729;SDS011;32476;50.002;11.854;2022-09-16T05:26:35;17.90;;;11.93;;
46729;SDS011;32476;50.002;11.854;2022-09-16T05:29:06;16.67;;;11.17;;
46729;SDS011;32476;50.002;11.854;2022-09-16T05:31:37;16.73;;;11.90;;
46729;SDS011;32476;50.002;11.854;2022-09-16T05:34:14;17.97;;;12.07;;
46729;SDS011;32476;50.002;11.854;2022-09-16T05:36:43;21.60;;;12.50;;
46729;SDS011;32476;50.002;11.854;2022-09-16T05:39:13;17.53;;;12.20;;
46729;SDS011;32476;50.002;11.854;2022-09-16T05:41:42;20.23;;;11.87;;
46729;SDS011;32476;50.002;11.854;2022-09-16T05:44:09;17.20;;;12.00;;
46729;SDS011;32476;50.002;11.854;2022-09-16T05:46:37;18.67;;;11.50;;
46729;SDS011;32476;50.002;11.854;2022-09-16T05:49:04;15.17;;;11.13;;
46729;SDS011;32476;50.002;11.854;2022-09-16T05:51:32;22.07;;;11.63;;
46729;SDS011;32476;50.002;11.854;2022-09-16T05:53:59;18.13;;;11.57;;
46729;SDS011;32476;50.002;11.854;2022-09-16T05:56:26;19.27;;;10.17;;
46729;SDS011;32476;50.002;11.854;2022-09-16T05:58:55;21.30;;;10.63;;
46729;SDS011;32476;50.002;11.854;2022-09-16T06:01:25;13.87;;;10.00;;
46729;SDS011;32476;50.002;11.854;2022-09-16T06:03:58;18.03;;;9.83;;
46729;SDS011;32476;50.002;11.854;2022-09-16T06:06:32;19.13;;;10.00;;
46729;SDS011;32476;50.002;11.854;2022-09-16T06:09:08;15.13;;;9.63;;
46729;SDS011;32476;50.002;11.854;2022-09-16T06:11:46;18.50;;;8.67;;
46729;SDS011;32476;50.002;11.854;2022-09-16T06:14:15;13.13;;;8.03;;
46729;SDS011;32476;50.002;11.854;2022-09-16T06:16:42;12.60;;;7.67;;
46729;SDS011;32476;50.002;11.854;2022-09-16T06:19:11;15.87;;;7.37;;
46729;SDS011;32476;50.002;11.854;2022-09-16T06:21:41;10.27;;;7.23;;
46729;SDS011;32476;50.002;11.854;2022-09-16T06:24:09;13.50;;;7.93;;
46729;SDS011;32476;50.002;11.854;2022-09-16T06:26:39;16.73;;;7.67;;
46729;SDS011;32476;50.002;11.854;2022-09-16T06:29:07;12.20;;;7.27;;
46729;SDS011;32476;50.002;11.854;2022-09-16T06:31:35;12.80;;;8.00;;
46729;SDS011;32476;50.002;11.854;2022-09-16T06:34:03;10.00;;;7.00;;
46729;SDS011;32476;50.002;11.854;2022-09-16T06:36:32;11.90;;;7.07;;
46729;SDS011;32476;50.002;11.854;2022-09-16T06:39:01;14.17;;;7.23;;
46729;SDS011;32476;50.002;11.854;2022-09-16T06:41:30;11.40;;;6.93;;
46729;SDS011;32476;50.002;11.854;2022-09-16T06:43:57;11.30;;;6.50;;
46729;SDS011;32476;50.002;11.854;2022-09-16T06:46:25;13.77;;;7.30;;
46729;SDS011;32476;50.002;11.854;2022-09-16T06:48:54;11.13;;;6.67;;
46729;SDS011;32476;50.002;11.854;2022-09-16T06:51:22;15.30;;;7.40;;
46729;SDS011;32476;50.002;11.854;2022-09-16T06:53:51;8.77;;;6.00;;
46729;SDS011;32476;50.002;11.854;2022-09-16T06:56:22;10.53;;;6.67;;
46729;SDS011;32476;50.002;11.854;2022-09-16T06:58:50;10.07;;;6.13;;
46729;SDS011;32476;50.002;11.854;2022-09-16T07:01:21;8.10;;;5.13;;
46729;SDS011;32476;50.002;11.854;2022-09-16T07:03:54;8.17;;;5.63;;
46729;SDS011;32476;50.002;11.854;2022-09-16T07:06:22;8.30;;;5.63;;
46729;SDS011;32476;50.002;11.854;2022-09-16T07:08:49;10.23;;;5.40;;
46729;SDS011;32476;50.002;11.854;2022-09-16T07:11:17;12.63;;;5.33;;
46729;SDS011;32476;50.002;11.854;2022-09-16T07:13:45;11.93;;;5.30;;
46729;SDS011;32476;50.002;11.854;2022-09-16T07:16:14;8.87;;;4.43;;
46729;SDS011;32476;50.002;11.854;2022-09-16T07:18:44;9.90;;;4.43;;
46729;SDS011;32476;50.002;11.854;2022-09-16T07:21:13;9.90;;;4.47;;
46729;SDS011;32476;50.002;11.854;2022-09-16T07:23:42;6.50;;;4.00;;
46729;SDS011;32476;50.002;11.854;2022-09-16T07:26:11;4.67;;;3.70;;
46729;SDS011;32476;50.002;11.854;2022-09-16T07:28:40;8.97;;;4.00;;
46729;SDS011;32476;50.002;11.854;2022-09-16T07:31:09;5.93;;;3.67;;
46729;SDS011;32476;50.002;11.854;2022-09-16T07:33:41;6.00;;;4.10;;
46729;SDS011;32476;50.002;11.854;2022-09-16T07:36:10;6.40;;;3.37;;
46729;SDS011;32476;50.002;11.854;2022-09-16T07:38:40;5.13;;;3.57;;
46729;SDS011;32476;50.002;11.854;2022-09-16T07:41:12;4.70;;;3.50;;
46729;SDS011;32476;50.002;11.854;2022-09-16T07:43:41;10.77;;;3.63;;
46729;SDS011;32476;50.002;11.854;2022-09-16T07:46:09;5.90;;;2.80;;
46729;SDS011;32476;50.002;11.854;2022-09-16T07:48:37;6.93;;;3.30;;
46729;SDS011;32476;50.002;11.854;2022-09-16T07:51:06;7.20;;;2.90;;
46729;SDS011;32476;50.002;11.854;2022-09-16T07:53:34;6.03;;;3.07;;
46729;SDS011;32476;50.002;11.854;2022-09-16T07:56:22;9.20;;;3.20;;
46729;SDS011;32476;50.002;11.854;2022-09-16T07:58:51;6.00;;;2.87;;
46729;SDS011;32476;50.002;11.854;2022-09-16T08:01:18;6.13;;;3.20;;
46729;SDS011;32476;50.002;11.854;2022-09-16T08:03:45;5.87;;;3.07;;
46729;SDS011;32476;50.002;11.854;2022-09-16T08:06:14;5.77;;;2.73;;
46729;SDS011;32476;50.002;11.854;2022-09-16T08:08:43;9.57;;;3.13;;
46729;SDS011;32476;50.002;11.854;2022-09-16T08:11:10;5.83;;;2.57;;
46729;SDS011;32476;50.002;11.854;2022-09-16T08:13:40;2.73;;;1.87;;
46729;SDS011;32476;50.002;11.854;2022-09-16T08:16:09;2.70;;;1.90;;
46729;SDS011;32476;50.002;11.854;2022-09-16T08:18:44;5.03;;;2.60;;
46729;SDS011;32476;50.002;11.854;2022-09-16T08:21:15;4.93;;;1.97;;
46729;SDS011;32476;50.002;11.854;2022-09-16T08:23:48;2.60;;;1.83;;
46729;SDS011;32476;50.002;11.854;2022-09-16T08:26:14;3.80;;;1.97;;
46729;SDS011;32476;50.002;11.854;2022-09-16T08:28:44;3.23;;;1.73;;
46729;SDS011;32476;50.002;11.854;2022-09-16T08:31:13;3.83;;;1.80;;
46729;SDS011;32476;50.002;11.854;2022-09-16T08:33:39;4.13;;;1.90;;
46729;SDS011;32476;50.002;11.854;2022-09-16T08:36:09;5.77;;;2.20;;
46729;SDS011;32476;50.002;11.854;2022-09-16T08:38:41;4.67;;;1.83;;
46729;SDS011;32476;50.002;11.854;2022-09-16T08:41:21;7.73;;;2.00;;
46729;SDS011;32476;50.002;11.854;2022-09-16T08:44:30;6.77;;;1.70;;
46729;SDS011;32476;50.002;11.854;2022-09-16T08:47:43;5.27;;;2.70;;
46729;SDS011;32476;50.002;11.854;2022-09-16T08:50:32;3.70;;;1.40;;
46729;SDS011;32476;50.002;11.854;2022-09-16T08:53:05;7.53;;;1.60;;
46729;SDS011;32476;50.002;11.854;2022-09-16T08:55:47;1.33;;;1.17;;
46729;SDS011;32476;50.002;11.854;2022-09-16T08:58:22;3.40;;;1.43;;
46729;SDS011;32476;50.002;11.854;2022-09-16T09:00:57;2.13;;;1.40;;
46729;SDS011;32476;50.002;11.854;2022-09-16T09:03:39;3.60;;;1.50;;
46729;SDS011;32476;50.002;11.854;2022-09-16T09:23:26;3.07;;;1.23;;
46729;SDS011;32476;50.002;11.854;2022-09-16T09:26:19;3.07;;;1.10;;
46729;SDS011;32476;50.002;11.854;2022-09-16T09:29:06;1.77;;;1.00;;
46729;SDS011;32476;50.002;11.854;2022-09-16T09:31:52;2.57;;;0.90;;
46729;SDS011;32476;50.002;11.854;2022-09-16T09:42:53;4.37;;;1.60;;
46729;SDS011;32476;50.002;11.854;2022-09-16T09:46:02;2.40;;;0.90;;
46729;SDS011;32476;50.002;11.854;2022-09-16T09:48:36;7.50;;;1.10;;
46729;SDS011;32476;50.002;11.854;2022-09-16T09:51:17;3.23;;;1.20;;
46729;SDS011;32476;50.002;11.854;2022-09-16T09:54:01;6.83;;;2.30;;
46729;SDS011;32476;50.002;11.854;2022-09-16T09:56:54;3.93;;;1.60;;
46729;SDS011;32476;50.002;11.854;2022-09-16T09:59:46;6.43;;;1.60;;
46729;SDS011;32476;50.002;11.854;2022-09-16T10:02:21;4.20;;;1.33;;
46729;SDS011;32476;50.002;11.854;2022-09-16T10:04:48;4.17;;;1.27;;
46729;SDS011;32476;50.002;11.854;2022-09-16T10:07:16;4.23;;;1.30;;
46729;SDS011;32476;50.002;11.854;2022-09-16T10:09:49;2.23;;;1.00;;
46729;SDS011;32476;50.002;11.854;2022-09-16T10:12:54;2.93;;;0.80;;
46729;SDS011;32476;50.002;11.854;2022-09-16T10:15:20;3.33;;;0.90;;
46729;SDS011;32476;50.002;11.854;2022-09-16T10:17:54;2.33;;;0.93;;
46729;SDS011;32476;50.002;11.854;2022-09-16T10:22:59;2.87;;;1.03;;
46729;SDS011;32476;50.002;11.854;2022-09-16T10:25:29;1.97;;;1.10;;
46729;SDS011;32476;50.002;11.854;2022-09-16T10:27:58;3.57;;;1.10;;
46729;SDS011;32476;50.002;11.854;2022-09-16T10:30:27;3.27;;;1.03;;
46729;SDS011;32476;50.002;11.854;2022-09-16T10:32:59;2.83;;;0.90;;
46729;SDS011;32476;50.002;11.854;2022-09-16T10:35:30;3.73;;;1.23;;
46729;SDS011;32476;50.002;11.854;2022-09-16T10:40:36;1.43;;;0.80;;
46729;SDS011;32476;50.002;11.854;2022-09-16T10:43:05;2.23;;;0.90;;
46729;SDS011;32476;50.002;11.854;2022-09-16T10:45:43;5.23;;;1.13;;
46729;SDS011;32476;50.002;11.854;2022-09-16T10:48:16;3.33;;;1.20;;
46729;SDS011;32476;50.002;11.854;2022-09-16T10:50:51;2.80;;;0.80;;
46729;SDS011;32476;50.002;11.854;2022-09-16T10:53:32;3.50;;;0.80;;
46729;SDS011;32476;50.002;11.854;2022-09-16T10:56:03;3.60;;;1.10;;
46729;SDS011;32476;50.002;11.854;2022-09-16T10:58:33;6.33;;;1.20;;
46729;SDS011;32476;50.002;11.854;2022-09-16T11:06:53;3.30;;;1.10;;
46729;SDS011;32476;50.002;11.854;2022-09-16T11:10:38;2.67;;;1.20;;
46729;SDS011;32476;50.002;11.854;2022-09-16T11:13:02;2.57;;;1.03;;
46729;SDS011;32476;50.002;11.854;2022-09-16T11:23:35;3.83;;;1.20;;
46729;SDS011;32476;50.002;11.854;2022-09-16T11:32:33;3.57;;;1.30;;
46729;SDS011;32476;50.002;11.854;2022-09-16T11:41:43;4.77;;;1.10;;
46729;SDS011;32476;50.002;11.854;2022-09-16T11:59:30;3.50;;;1.10;;
46729;SDS011;32476;50.002;11.854;2022-09-16T12:05:22;2.80;;;1.00;;
46729;SDS011;32476;50.002;11.854;2022-09-16T12:08:03;5.47;;;1.30;;
46729;SDS011;32476;50.002;11.854;2022-09-16T12:10:52;2.57;;;0.93;;
46729;SDS011;32476;50.002;11.854;2022-09-16T12:13:28;4.13;;;0.90;;
46729;SDS011;32476;50.002;11.854;2022-09-16T12:16:11;5.13;;;1.30;;
46729;SDS011;32476;50.002;11.854;2022-09-16T12:18:44;3.63;;;1.00;;
46729;SDS011;32476;50.002;11.854;2022-09-16T12:24:00;1.67;;;0.90;;
46729;SDS011;32476;50.002;11.854;2022-09-16T12:26:42;1.97;;;1.07;;
46729;SDS011;32476;50.002;11.854;2022-09-16T12:32:19;4.00;;;1.07;;
46729;SDS011;32476;50.002;11.854;2022-09-16T12:35:02;2.83;;;1.20;;
46729;SDS011;32476;50.002;11.854;2022-09-16T12:37:48;2.50;;;0.90;;
46729;SDS011;32476;50.002;11.854;2022-09-16T12:45:35;2.37;;;0.93;;
46729;SDS011;32476;50.002;11.854;2022-09-16T12:48:36;2.30;;;0.80;;
46729;SDS011;32476;50.002;11.854;2022-09-16T13:04:06;1.63;;;1.10;;
46729;SDS011;32476;50.002;11.854;2022-09-16T13:06:47;2.90;;;1.40;;
46729;SDS011;32476;50.002;11.854;2022-09-16T13:09:24;2.27;;;1.10;;
46729;SDS011;32476;50.002;11.854;2022-09-16T13:14:32;2.33;;;1.10;;
46729;SDS011;32476;50.002;11.854;2022-09-16T13:17:11;1.73;;;1.10;;
46729;SDS011;32476;50.002;11.854;2022-09-16T13:22:28;3.03;;;1.40;;
46729;SDS011;32476;50.002;11.854;2022-09-16T13:27:58;2.73;;;1.40;;
46729;SDS011;32476;50.002;11.854;2022-09-16T13:30:48;3.30;;;1.30;;
46729;SDS011;32476;50.002;11.854;2022-09-16T13:35:46;3.57;;;1.40;;
46729;SDS011;32476;50.002;11.854;2022-09-16T13:40:54;6.23;;;1.80;;
46729;SDS011;32476;50.002;11.854;2022-09-16T13:43:33;3.37;;;1.53;;
46729;SDS011;32476;50.002;11.854;2022-09-16T13:46:25;4.63;;;1.80;;
46729;SDS011;32476;50.002;11.854;2022-09-16T13:49:02;3.27;;;1.40;;
46729;SDS011;32476;50.002;11.854;2022-09-16T13:51:29;4.17;;;1.67;;
46729;SDS011;32476;50.002;11.854;2022-09-16T13:53:59;3.80;;;1.40;;
46729;SDS011;32476;50.002;11.854;2022-09-16T14:02:48;3.77;;;1.50;;
46729;SDS011;32476;50.002;11.854;2022-09-16T14:11:25;4.43;;;1.80;;
46729;SDS011;32476;50.002;11.854;2022-09-16T14:14:05;4.07;;;2.17;;
46729;SDS011;32476;50.002;11.854;2022-09-16T14:16:39;3.77;;;1.80;;
46729;SDS011;32476;50.002;11.854;2022-09-16T14:19:22;5.83;;;1.90;;
46729;SDS011;32476;50.002;11.854;2022-09-16T14:22:13;5.10;;;2.67;;
46729;SDS011;32476;50.002;11.854;2022-09-16T14:24:42;5.20;;;2.00;;
46729;SDS011;32476;50.002;11.854;2022-09-16T14:30:00;4.53;;;1.90;;
46729;SDS011;32476;50.002;11.854;2022-09-16T14:32:33;4.07;;;2.10;;
46729;SDS011;32476;50.002;11.854;2022-09-16T14:35:02;5.13;;;2.50;;
46729;SDS011;32476;50.002;11.854;2022-09-16T14:37:37;9.53;;;2.23;;
46729;SDS011;32476;50.002;11.854;2022-09-16T14:40:05;4.50;;;2.33;;
46729;SDS011;32476;50.002;11.854;2022-09-16T14:42:50;2.73;;;1.77;;
46729;SDS011;32476;50.002;11.854;2022-09-16T14:45:22;3.37;;;1.70;;
46729;SDS011;32476;50.002;11.854;2022-09-16T14:47:50;4.07;;;1.97;;
46729;SDS011;32476;50.002;11.854;2022-09-16T14:50:24;6.20;;;2.10;;
46729;SDS011;32476;50.002;11.854;2022-09-16T14:52:58;3.33;;;2.03;;
46729;SDS011;32476;50.002;11.854;2022-09-16T14:55:36;1.30;;;1.17;;
46729;SDS011;32476;50.002;11.854;2022-09-16T14:58:07;2.27;;;1.10;;
46729;SDS011;32476;50.002;11.854;2022-09-16T15:00:45;2.33;;;1.50;;
46729;SDS011;32476;50.002;11.854;2022-09-16T15:06:17;2.03;;;1.40;;
46729;SDS011;32476;50.002;11.854;2022-09-16T15:11:20;3.07;;;1.00;;
46729;SDS011;32476;50.002;11.854;2022-09-16T15:13:56;4.30;;;1.30;;
46729;SDS011;32476;50.002;11.854;2022-09-16T15:16:22;2.20;;;1.10;;
46729;SDS011;32476;50.002;11.854;2022-09-16T15:18:51;1.83;;;1.30;;
46729;SDS011;32476;50.002;11.854;2022-09-16T15:23:57;1.37;;;1.00;;
46729;SDS011;32476;50.002;11.854;2022-09-16T15:26:42;3.13;;;1.03;;
46729;SDS011;32476;50.002;11.854;2022-09-16T15:31:45;2.63;;;1.60;;
46729;SDS011;32476;50.002;11.854;2022-09-16T15:36:49;2.63;;;1.70;;
46729;SDS011;32476;50.002;11.854;2022-09-16T15:39:34;3.17;;;1.80;;
46729;SDS011;32476;50.002;11.854;2022-09-16T15:44:48;2.77;;;1.67;;
46729;SDS011;32476;50.002;11.854;2022-09-16T15:50:05;3.00;;;1.73;;
46729;SDS011;32476;50.002;11.854;2022-09-16T15:52:53;3.60;;;1.50;;
46729;SDS011;32476;50.002;11.854;2022-09-16T15:55:41;2.90;;;1.67;;
46729;SDS011;32476;50.002;11.854;2022-09-16T15:58:20;2.43;;;1.67;;
46729;SDS011;32476;50.002;11.854;2022-09-16T16:01:05;4.67;;;1.50;;
46729;SDS011;32476;50.002;11.854;2022-09-16T16:03:46;2.73;;;1.40;;
46729;SDS011;32476;50.002;11.854;2022-09-16T16:06:23;1.70;;;1.13;;
46729;SDS011;32476;50.002;11.854;2022-09-16T16:11:59;1.70;;;1.20;;
46729;SDS011;32476;50.002;11.854;2022-09-16T16:14:30;5.10;;;1.53;;
46729;SDS011;32476;50.002;11.854;2022-09-16T16:16:59;4.97;;;1.77;;
46729;SDS011;32476;50.002;11.854;2022-09-16T16:19:34;3.47;;;1.30;;
46729;SDS011;32476;50.002;11.854;2022-09-16T16:22:04;6.60;;;1.73;;
46729;SDS011;32476;50.002;11.854;2022-09-16T16:24:32;2.80;;;1.70;;
46729;SDS011;32476;50.002;11.854;2022-09-16T16:26:58;3.57;;;2.10;;
46729;SDS011;32476;50.002;11.854;2022-09-16T16:29:26;4.53;;;2.20;;
46729;SDS011;32476;50.002;11.854;2022-09-16T16:32:08;5.53;;;3.60;;
46729;SDS011;32476;50.002;11.854;2022-09-16T16:34:40;3.73;;;2.00;;
46729;SDS011;32476;50.002;11.854;2022-09-16T16:37:09;3.27;;;2.23;;
46729;SDS011;32476;50.002;11.854;2022-09-16T16:39:40;5.63;;;2.83;;
46729;SDS011;32476;50.002;11.854;2022-09-16T16:42:06;3.93;;;2.80;;
46729;SDS011;32476;50.002;11.854;2022-09-16T16:44:33;7.77;;;3.03;;
46729;SDS011;32476;50.002;11.854;2022-09-16T16:47:00;5.17;;;2.93;;
46729;SDS011;32476;50.002;11.854;2022-09-16T16:49:27;5.20;;;3.07;;
46729;SDS011;32476;50.002;11.854;2022-09-16T16:51:53;3.57;;;2.40;;
46729;SDS011;32476;50.002;11.854;2022-09-16T16:54:20;2.73;;;2.20;;
46729;SDS011;32476;50.002;11.854;2022-09-16T16:56:47;4.80;;;2.07;;
46729;SDS011;32476;50.002;11.854;2022-09-16T16:59:13;2.90;;;1.90;;
46729;SDS011;32476;50.002;11.854;2022-09-16T17:01:42;4.13;;;1.80;;
46729;SDS011;32476;50.002;11.854;2022-09-16T17:04:09;2.77;;;1.70;;
46729;SDS011;32476;50.002;11.854;2022-09-16T17:06:36;3.30;;;1.60;;
46729;SDS011;32476;50.002;11.854;2022-09-16T17:09:04;3.53;;;1.83;;
46729;SDS011;32476;50.002;11.854;2022-09-16T17:11:32;3.53;;;2.43;;
46729;SDS011;32476;50.002;11.854;2022-09-16T17:14:00;2.27;;;2.00;;
46729;SDS011;32476;50.002;11.854;2022-09-16T17:16:31;1.93;;;1.60;;
46729;SDS011;32476;50.002;11.854;2022-09-16T17:18:59;2.70;;;1.73;;
46729;SDS011;32476;50.002;11.854;2022-09-16T17:21:27;1.53;;;1.40;;
46729;SDS011;32476;50.002;11.854;2022-09-16T17:23:59;3.17;;;1.67;;
46729;SDS011;32476;50.002;11.854;2022-09-16T17:26:26;2.60;;;2.03;;
46729;SDS011;32476;50.002;11.854;2022-09-16T17:28:53;4.27;;;2.27;;
46729;SDS011;32476;50.002;11.854;2022-09-16T17:31:25;4.33;;;2.53;;
46729;SDS011;32476;50.002;11.854;2022-09-16T17:33:54;2.57;;;1.97;;
46729;SDS011;32476;50.002;11.854;2022-09-16T17:36:23;3.50;;;2.23;;
46729;SDS011;32476;50.002;11.854;2022-09-16T17:38:57;3.30;;;2.63;;
46729;SDS011;32476;50.002;11.854;2022-09-16T17:41:26;5.57;;;3.63;;
46729;SDS011;32476;50.002;11.854;2022-09-16T17:43:53;6.73;;;3.60;;
46729;SDS011;32476;50.002;11.854;2022-09-16T17:46:20;3.00;;;2.67;;
46729;SDS011;32476;50.002;11.854;2022-09-16T17:48:49;4.47;;;3.47;;
46729;SDS011;32476;50.002;11.854;2022-09-16T17:51:16;5.10;;;4.13;;
46729;SDS011;32476;50.002;11.854;2022-09-16T17:53:43;13.57;;;8.60;;
46729;SDS011;32476;50.002;11.854;2022-09-16T17:56:11;28.67;;;19.10;;
46729;SDS011;32476;50.002;11.854;2022-09-16T17:58:40;13.83;;;8.67;;
46729;SDS011;32476;50.002;11.854;2022-09-16T18:01:11;9.67;;;2.97;;
46729;SDS011;32476;50.002;11.854;2022-09-16T18:03:43;8.07;;;2.60;;
46729;SDS011;32476;50.002;11.854;2022-09-16T18:06:17;3.73;;;2.60;;
46729;SDS011;32476;50.002;11.854;2022-09-16T18:08:47;3.50;;;2.40;;